sensor_id;sensor_type;location;lat;lon;timestamp;temperature;humidity
48686;DHT22;34485;51.536;3.816;2022-11-20T00:00:08;3.30;99.90
48686;DHT22;34485;51.536;3.816;2022-11-20T00:02:34;3.30;99.90
48686;DHT22;34485;51.536;3.816;2022-11-20T00:04:59;3.40;99.90
48686;DHT22;34485;51.536;3.816;2022-11-20T00:07:25;3.40;99.90
48686;DHT22;34485;51.536;3.816;2022-11-20T00:09:51;3.40;99.90
48686;DHT22;34485;51.536;3.816;2022-11-20T00:12:16;3.40;99.90
48686;DHT22;34485;51.536;3.816;2022-11-20T00:14:42;3.50;99.90
48686;DHT22;34485;51.536;3.816;2022-11-20T00:17:07;3.50;99.90
48686;DHT22;34485;51.536;3.816;2022-11-20T00:19:33;3.50;99.90
48686;DHT22;34485;51.536;3.816;2022-11-20T00:21:58;3.50;99.90
48686;DHT22;34485;51.536;3.816;2022-11-20T00:24:24;3.60;99.90
48686;DHT22;34485;51.536;3.816;2022-11-20T00:26:49;3.60;99.90
48686;DHT22;34485;51.536;3.816;2022-11-20T00:29:15;3.70;99.90
48686;DHT22;34485;51.536;3.816;2022-11-20T00:31:41;3.60;99.90
48686;DHT22;34485;51.536;3.816;2022-11-20T00:34:06;3.50;99.90
48686;DHT22;34485;51.536;3.816;2022-11-20T00:36:33;3.50;99.90
48686;DHT22;34485;51.536;3.816;2022-11-20T00:38:59;3.50;99.90
48686;DHT22;34485;51.536;3.816;2022-11-20T00:41:27;3.60;99.90
48686;DHT22;34485;51.536;3.816;2022-11-20T00:43:53;3.50;99.90
48686;DHT22;34485;51.536;3.816;2022-11-20T00:46:22;3.50;99.90
48686;DHT22;34485;51.536;3.816;2022-11-20T00:48:48;3.50;99.90
48686;DHT22;34485;51.536;3.816;2022-11-20T00:51:16;3.40;99.90
48686;DHT22;34485;51.536;3.816;2022-11-20T00:53:44;3.50;99.90
48686;DHT22;34485;51.536;3.816;2022-11-20T00:56:11;3.40;99.90
48686;DHT22;34485;51.536;3.816;2022-11-20T00:58:39;3.30;99.90
48686;DHT22;34485;51.536;3.816;2022-11-20T01:01:13;3.30;99.90
48686;DHT22;34485;51.536;3.816;2022-11-20T01:03:41;3.20;99.90
48686;DHT22;34485;51.536;3.816;2022-11-20T01:06:10;3.10;99.90
48686;DHT22;34485;51.536;3.816;2022-11-20T01:08:37;3.10;99.90
48686;DHT22;34485;51.536;3.816;2022-11-20T01:11:14;3.10;99.90
48686;DHT22;34485;51.536;3.816;2022-11-20T01:13:41;3.10;99.90
48686;DHT22;34485;51.536;3.816;2022-11-20T01:16:18;3.00;99.90
48686;DHT22;34485;51.536;3.816;2022-11-20T01:18:46;3.00;99.90
48686;DHT22;34485;51.536;3.816;2022-11-20T01:21:15;2.90;99.90
48686;DHT22;34485;51.536;3.816;2022-11-20T01:26:14;2.80;99.90
48686;DHT22;34485;51.536;3.816;2022-11-20T01:28:41;2.60;99.90
48686;DHT22;34485;51.536;3.816;2022-11-20T01:33:47;2.40;99.90
48686;DHT22;34485;51.536;3.816;2022-11-20T01:36:15;2.40;99.90
48686;DHT22;34485;51.536;3.816;2022-11-20T01:38:41;2.30;99.90
48686;DHT22;34485;51.536;3.816;2022-11-20T01:41:07;2.20;99.90
48686;DHT22;34485;51.536;3.816;2022-11-20T01:43:34;2.10;99.90
48686;DHT22;34485;51.536;3.816;2022-11-20T01:46:18;2.10;99.90
48686;DHT22;34485;51.536;3.816;2022-11-20T01:53:52;2.00;99.90
48686;DHT22;34485;51.536;3.816;2022-11-20T01:56:19;2.00;99.90
48686;DHT22;34485;51.536;3.816;2022-11-20T01:58:49;1.90;99.90
48686;DHT22;34485;51.536;3.816;2022-11-20T02:01:16;1.90;99.90
48686;DHT22;34485;51.536;3.816;2022-11-20T02:03:42;1.90;99.90
48686;DHT22;34485;51.536;3.816;2022-11-20T02:06:29;1.80;99.90
48686;DHT22;34485;51.536;3.816;2022-11-20T02:08:56;1.70;99.90
48686;DHT22;34485;51.536;3.816;2022-11-20T02:11:21;1.70;99.90
48686;DHT22;34485;51.536;3.816;2022-11-20T02:13:47;1.60;99.90
48686;DHT22;34485;51.536;3.816;2022-11-20T02:16:32;1.50;99.90
48686;DHT22;34485;51.536;3.816;2022-11-20T02:19:00;1.50;99.90
48686;DHT22;34485;51.536;3.816;2022-11-20T02:21:37;1.50;99.90
48686;DHT22;34485;51.536;3.816;2022-11-20T02:29:11;1.30;99.90
48686;DHT22;34485;51.536;3.816;2022-11-20T02:31:40;1.30;99.90
48686;DHT22;34485;51.536;3.816;2022-11-20T02:34:06;1.30;99.90
48686;DHT22;34485;51.536;3.816;2022-11-20T02:36:33;1.20;99.90
48686;DHT22;34485;51.536;3.816;2022-11-20T02:39:00;1.10;99.90
48686;DHT22;34485;51.536;3.816;2022-11-20T02:41:37;1.10;99.90
48686;DHT22;34485;51.536;3.816;2022-11-20T02:44:04;1.10;99.90
48686;DHT22;34485;51.536;3.816;2022-11-20T02:46:30;1.10;99.90
48686;DHT22;34485;51.536;3.816;2022-11-20T02:48:56;1.10;99.90
48686;DHT22;34485;51.536;3.816;2022-11-20T02:51:21;1.10;99.90
48686;DHT22;34485;51.536;3.816;2022-11-20T02:53:47;1.10;99.90
48686;DHT22;34485;51.536;3.816;2022-11-20T02:56:13;1.10;99.90
48686;DHT22;34485;51.536;3.816;2022-11-20T02:58:39;1.10;99.90
48686;DHT22;34485;51.536;3.816;2022-11-20T03:01:04;1.10;99.90
48686;DHT22;34485;51.536;3.816;2022-11-20T03:03:30;1.10;99.90
48686;DHT22;34485;51.536;3.816;2022-11-20T03:05:58;1.10;99.90
48686;DHT22;34485;51.536;3.816;2022-11-20T03:08:23;1.10;99.90
48686;DHT22;34485;51.536;3.816;2022-11-20T03:10:49;1.10;99.90
48686;DHT22;34485;51.536;3.816;2022-11-20T03:13:14;1.20;99.90
48686;DHT22;34485;51.536;3.816;2022-11-20T03:15:40;1.20;99.90
48686;DHT22;34485;51.536;3.816;2022-11-20T03:18:05;1.10;99.90
48686;DHT22;34485;51.536;3.816;2022-11-20T03:20:32;1.00;99.90
48686;DHT22;34485;51.536;3.816;2022-11-20T03:22:58;1.10;99.90
48686;DHT22;34485;51.536;3.816;2022-11-20T03:25:24;1.00;99.90
48686;DHT22;34485;51.536;3.816;2022-11-20T03:27:50;1.00;99.90
48686;DHT22;34485;51.536;3.816;2022-11-20T03:30:15;1.00;99.90
48686;DHT22;34485;51.536;3.816;2022-11-20T03:32:41;1.00;99.90
48686;DHT22;34485;51.536;3.816;2022-11-20T03:35:07;1.00;99.90
48686;DHT22;34485;51.536;3.816;2022-11-20T03:37:33;1.00;99.90
48686;DHT22;34485;51.536;3.816;2022-11-20T03:39:59;1.10;99.90
48686;DHT22;34485;51.536;3.816;2022-11-20T03:42:24;1.10;99.90
48686;DHT22;34485;51.536;3.816;2022-11-20T03:45:08;1.10;99.90
48686;DHT22;34485;51.536;3.816;2022-11-20T03:47:34;1.10;99.90
48686;DHT22;34485;51.536;3.816;2022-11-20T03:50:00;1.10;99.90
48686;DHT22;34485;51.536;3.816;2022-11-20T03:52:25;1.10;99.90
48686;DHT22;34485;51.536;3.816;2022-11-20T03:54:51;1.20;99.90
48686;DHT22;34485;51.536;3.816;2022-11-20T03:57:16;1.10;99.90
48686;DHT22;34485;51.536;3.816;2022-11-20T03:59:42;1.10;99.90
48686;DHT22;34485;51.536;3.816;2022-11-20T04:02:07;1.10;99.90
48686;DHT22;34485;51.536;3.816;2022-11-20T04:04:33;1.10;99.90
48686;DHT22;34485;51.536;3.816;2022-11-20T04:06:58;1.00;99.90
48686;DHT22;34485;51.536;3.816;2022-11-20T04:09:24;1.00;99.90
48686;DHT22;34485;51.536;3.816;2022-11-20T04:11:50;1.00;99.90
48686;DHT22;34485;51.536;3.816;2022-11-20T04:14:16;1.00;99.90
48686;DHT22;34485;51.536;3.816;2022-11-20T04:16:42;1.10;99.90
48686;DHT22;34485;51.536;3.816;2022-11-20T04:19:15;1.20;99.90
48686;DHT22;34485;51.536;3.816;2022-11-20T04:21:43;1.20;99.90
48686;DHT22;34485;51.536;3.816;2022-11-20T04:24:09;1.30;99.90
48686;DHT22;34485;51.536;3.816;2022-11-20T04:26:36;1.30;99.90
48686;DHT22;34485;51.536;3.816;2022-11-20T04:29:02;1.40;99.90
48686;DHT22;34485;51.536;3.816;2022-11-20T04:31:29;1.50;99.90
48686;DHT22;34485;51.536;3.816;2022-11-20T04:33:59;1.60;99.90
48686;DHT22;34485;51.536;3.816;2022-11-20T04:36:27;1.70;99.90
48686;DHT22;34485;51.536;3.816;2022-11-20T04:38:58;1.80;99.90
48686;DHT22;34485;51.536;3.816;2022-11-20T04:41:29;1.90;99.90
48686;DHT22;34485;51.536;3.816;2022-11-20T04:43:58;2.00;99.90
48686;DHT22;34485;51.536;3.816;2022-11-20T04:46:33;2.10;99.90
48686;DHT22;34485;51.536;3.816;2022-11-20T04:48:59;2.20;99.90
48686;DHT22;34485;51.536;3.816;2022-11-20T04:51:25;2.30;99.90
48686;DHT22;34485;51.536;3.816;2022-11-20T04:53:51;2.40;99.90
48686;DHT22;34485;51.536;3.816;2022-11-20T04:56:16;2.40;99.90
48686;DHT22;34485;51.536;3.816;2022-11-20T04:58:42;2.50;99.90
48686;DHT22;34485;51.536;3.816;2022-11-20T05:01:19;2.60;99.90
48686;DHT22;34485;51.536;3.816;2022-11-20T05:03:46;2.60;99.90
48686;DHT22;34485;51.536;3.816;2022-11-20T05:06:15;2.60;99.90
48686;DHT22;34485;51.536;3.816;2022-11-20T05:08:41;2.70;99.90
48686;DHT22;34485;51.536;3.816;2022-11-20T05:11:09;2.70;99.90
48686;DHT22;34485;51.536;3.816;2022-11-20T05:13:35;2.80;99.90
48686;DHT22;34485;51.536;3.816;2022-11-20T05:16:02;2.80;99.90
48686;DHT22;34485;51.536;3.816;2022-11-20T05:18:28;2.70;99.90
48686;DHT22;34485;51.536;3.816;2022-11-20T05:20:57;2.70;99.90
48686;DHT22;34485;51.536;3.816;2022-11-20T05:23:24;2.60;99.90
48686;DHT22;34485;51.536;3.816;2022-11-20T05:25:55;2.60;99.90
48686;DHT22;34485;51.536;3.816;2022-11-20T05:28:21;2.50;99.90
48686;DHT22;34485;51.536;3.816;2022-11-20T05:30:47;2.50;99.90
48686;DHT22;34485;51.536;3.816;2022-11-20T05:33:13;2.50;99.90
48686;DHT22;34485;51.536;3.816;2022-11-20T05:35:39;2.50;99.90
48686;DHT22;34485;51.536;3.816;2022-11-20T05:38:04;2.50;99.90
48686;DHT22;34485;51.536;3.816;2022-11-20T05:40:30;2.50;99.90
48686;DHT22;34485;51.536;3.816;2022-11-20T05:42:55;2.50;99.90
48686;DHT22;34485;51.536;3.816;2022-11-20T05:45:21;2.40;99.90
48686;DHT22;34485;51.536;3.816;2022-11-20T05:47:47;2.40;99.90
48686;DHT22;34485;51.536;3.816;2022-11-20T05:50:13;2.40;99.90
48686;DHT22;34485;51.536;3.816;2022-11-20T05:52:40;2.40;99.90
48686;DHT22;34485;51.536;3.816;2022-11-20T05:55:06;2.40;99.90
48686;DHT22;34485;51.536;3.816;2022-11-20T05:57:31;2.50;99.90
48686;DHT22;34485;51.536;3.816;2022-11-20T05:59:57;2.50;99.90
48686;DHT22;34485;51.536;3.816;2022-11-20T06:02:22;2.50;99.90
48686;DHT22;34485;51.536;3.816;2022-11-20T06:04:48;2.60;99.90
48686;DHT22;34485;51.536;3.816;2022-11-20T06:07:14;2.60;99.90
48686;DHT22;34485;51.536;3.816;2022-11-20T06:09:40;2.60;99.90
48686;DHT22;34485;51.536;3.816;2022-11-20T06:12:06;2.60;99.90
48686;DHT22;34485;51.536;3.816;2022-11-20T06:14:32;2.60;99.90
48686;DHT22;34485;51.536;3.816;2022-11-20T06:16:58;2.70;99.90
48686;DHT22;34485;51.536;3.816;2022-11-20T06:19:24;2.80;99.90
48686;DHT22;34485;51.536;3.816;2022-11-20T06:21:49;2.80;99.90
48686;DHT22;34485;51.536;3.816;2022-11-20T06:24:16;2.90;99.90
48686;DHT22;34485;51.536;3.816;2022-11-20T06:26:41;2.90;99.90
48686;DHT22;34485;51.536;3.816;2022-11-20T06:29:07;3.00;99.90
48686;DHT22;34485;51.536;3.816;2022-11-20T06:31:33;3.00;99.90
48686;DHT22;34485;51.536;3.816;2022-11-20T06:34:00;3.00;99.90
48686;DHT22;34485;51.536;3.816;2022-11-20T06:36:26;3.10;99.90
48686;DHT22;34485;51.536;3.816;2022-11-20T06:38:52;3.10;99.90
48686;DHT22;34485;51.536;3.816;2022-11-20T06:41:20;3.10;99.90
48686;DHT22;34485;51.536;3.816;2022-11-20T06:43:46;3.20;99.90
48686;DHT22;34485;51.536;3.816;2022-11-20T06:46:13;3.20;99.90
48686;DHT22;34485;51.536;3.816;2022-11-20T06:48:39;3.20;99.90
48686;DHT22;34485;51.536;3.816;2022-11-20T06:51:06;3.20;99.90
48686;DHT22;34485;51.536;3.816;2022-11-20T06:53:33;3.30;99.90
48686;DHT22;34485;51.536;3.816;2022-11-20T06:55:59;3.30;99.90
48686;DHT22;34485;51.536;3.816;2022-11-20T06:58:27;3.30;99.90
48686;DHT22;34485;51.536;3.816;2022-11-20T07:00:53;3.30;99.90
48686;DHT22;34485;51.536;3.816;2022-11-20T07:03:19;3.30;99.90
48686;DHT22;34485;51.536;3.816;2022-11-20T07:05:45;3.30;99.90
48686;DHT22;34485;51.536;3.816;2022-11-20T07:08:11;3.40;99.90
48686;DHT22;34485;51.536;3.816;2022-11-20T07:10:37;3.40;99.90
48686;DHT22;34485;51.536;3.816;2022-11-20T07:13:03;3.50;99.90
48686;DHT22;34485;51.536;3.816;2022-11-20T07:15:29;3.40;99.90
48686;DHT22;34485;51.536;3.816;2022-11-20T07:17:55;3.40;99.90
48686;DHT22;34485;51.536;3.816;2022-11-20T07:20:20;3.50;99.90
48686;DHT22;34485;51.536;3.816;2022-11-20T07:22:46;3.50;99.90
48686;DHT22;34485;51.536;3.816;2022-11-20T07:25:12;3.50;99.90
48686;DHT22;34485;51.536;3.816;2022-11-20T07:27:37;3.50;99.90
48686;DHT22;34485;51.536;3.816;2022-11-20T07:30:03;3.60;99.90
48686;DHT22;34485;51.536;3.816;2022-11-20T07:32:29;3.60;99.90
48686;DHT22;34485;51.536;3.816;2022-11-20T07:34:55;3.60;99.90
48686;DHT22;34485;51.536;3.816;2022-11-20T07:37:21;3.60;99.90
48686;DHT22;34485;51.536;3.816;2022-11-20T07:39:46;3.70;99.90
48686;DHT22;34485;51.536;3.816;2022-11-20T07:42:12;3.70;99.90
48686;DHT22;34485;51.536;3.816;2022-11-20T07:44:38;3.70;99.90
48686;DHT22;34485;51.536;3.816;2022-11-20T07:47:04;3.80;99.90
48686;DHT22;34485;51.536;3.816;2022-11-20T07:49:29;3.80;99.90
48686;DHT22;34485;51.536;3.816;2022-11-20T07:51:55;3.80;99.90
48686;DHT22;34485;51.536;3.816;2022-11-20T07:54:21;3.90;99.90
48686;DHT22;34485;51.536;3.816;2022-11-20T07:56:48;3.90;99.90
48686;DHT22;34485;51.536;3.816;2022-11-20T07:59:14;4.00;99.90
48686;DHT22;34485;51.536;3.816;2022-11-20T08:01:41;4.00;99.90
48686;DHT22;34485;51.536;3.816;2022-11-20T08:04:07;4.00;99.90
48686;DHT22;34485;51.536;3.816;2022-11-20T08:06:32;4.00;99.90
48686;DHT22;34485;51.536;3.816;2022-11-20T08:08:58;4.10;99.90
48686;DHT22;34485;51.536;3.816;2022-11-20T08:11:24;4.10;99.90
48686;DHT22;34485;51.536;3.816;2022-11-20T08:14:08;4.10;99.90
48686;DHT22;34485;51.536;3.816;2022-11-20T08:16:40;4.20;99.90
48686;DHT22;34485;51.536;3.816;2022-11-20T08:19:06;4.20;99.90
48686;DHT22;34485;51.536;3.816;2022-11-20T08:21:32;4.20;99.90
48686;DHT22;34485;51.536;3.816;2022-11-20T08:23:59;4.30;99.90
48686;DHT22;34485;51.536;3.816;2022-11-20T08:26:25;4.30;99.90
48686;DHT22;34485;51.536;3.816;2022-11-20T08:28:57;4.30;99.90
48686;DHT22;34485;51.536;3.816;2022-11-20T08:31:24;4.40;99.90
48686;DHT22;34485;51.536;3.816;2022-11-20T08:33:50;4.40;99.90
48686;DHT22;34485;51.536;3.816;2022-11-20T08:36:17;4.40;99.90
48686;DHT22;34485;51.536;3.816;2022-11-20T08:38:50;4.40;99.90
48686;DHT22;34485;51.536;3.816;2022-11-20T08:41:16;4.50;99.90
48686;DHT22;34485;51.536;3.816;2022-11-20T08:44:00;4.50;99.90
48686;DHT22;34485;51.536;3.816;2022-11-20T08:46:31;4.60;99.90
48686;DHT22;34485;51.536;3.816;2022-11-20T08:48:58;4.60;99.90
48686;DHT22;34485;51.536;3.816;2022-11-20T08:51:24;4.60;99.90
48686;DHT22;34485;51.536;3.816;2022-11-20T08:53:49;4.60;99.90
48686;DHT22;34485;51.536;3.816;2022-11-20T08:56:16;4.70;99.90
48686;DHT22;34485;51.536;3.816;2022-11-20T08:58:41;4.70;99.90
48686;DHT22;34485;51.536;3.816;2022-11-20T09:01:07;4.70;99.90
48686;DHT22;34485;51.536;3.816;2022-11-20T09:03:33;4.80;99.90
48686;DHT22;34485;51.536;3.816;2022-11-20T09:06:00;4.90;99.90
48686;DHT22;34485;51.536;3.816;2022-11-20T09:08:27;4.90;99.90
48686;DHT22;34485;51.536;3.816;2022-11-20T09:10:53;4.90;99.90
48686;DHT22;34485;51.536;3.816;2022-11-20T09:13:23;4.90;99.90
48686;DHT22;34485;51.536;3.816;2022-11-20T09:15:56;4.90;99.90
48686;DHT22;34485;51.536;3.816;2022-11-20T09:18:23;5.00;99.90
48686;DHT22;34485;51.536;3.816;2022-11-20T09:20:49;5.00;99.90
48686;DHT22;34485;51.536;3.816;2022-11-20T09:23:15;5.00;99.90
48686;DHT22;34485;51.536;3.816;2022-11-20T09:25:41;5.10;99.90
48686;DHT22;34485;51.536;3.816;2022-11-20T09:28:06;5.10;99.90
48686;DHT22;34485;51.536;3.816;2022-11-20T09:30:32;5.20;99.90
48686;DHT22;34485;51.536;3.816;2022-11-20T09:32:57;5.20;99.90
48686;DHT22;34485;51.536;3.816;2022-11-20T09:35:23;5.20;99.90
48686;DHT22;34485;51.536;3.816;2022-11-20T09:37:49;5.20;99.90
48686;DHT22;34485;51.536;3.816;2022-11-20T09:40:22;5.20;99.90
48686;DHT22;34485;51.536;3.816;2022-11-20T09:43:57;5.30;99.90
48686;DHT22;34485;51.536;3.816;2022-11-20T09:51:35;5.40;99.90
48686;DHT22;34485;51.536;3.816;2022-11-20T09:54:18;5.40;99.90
48686;DHT22;34485;51.536;3.816;2022-11-20T09:56:51;5.40;99.90
48686;DHT22;34485;51.536;3.816;2022-11-20T09:59:40;5.40;99.90
48686;DHT22;34485;51.536;3.816;2022-11-20T10:07:30;5.50;99.90
48686;DHT22;34485;51.536;3.816;2022-11-20T10:09:58;5.50;99.90
48686;DHT22;34485;51.536;3.816;2022-11-20T10:12:45;5.50;99.90
48686;DHT22;34485;51.536;3.816;2022-11-20T10:20:44;5.60;99.90
48686;DHT22;34485;51.536;3.816;2022-11-20T10:25:52;5.60;99.90
48686;DHT22;34485;51.536;3.816;2022-11-20T10:31:07;5.60;99.90
48686;DHT22;34485;51.536;3.816;2022-11-20T10:33:39;5.70;99.90
48686;DHT22;34485;51.536;3.816;2022-11-20T10:38:45;5.80;99.90
48686;DHT22;34485;51.536;3.816;2022-11-20T10:41:27;5.90;99.90
48686;DHT22;34485;51.536;3.816;2022-11-20T10:44:17;5.90;99.90
48686;DHT22;34485;51.536;3.816;2022-11-20T10:47:01;5.90;99.90
48686;DHT22;34485;51.536;3.816;2022-11-20T10:49:30;6.00;99.90
48686;DHT22;34485;51.536;3.816;2022-11-20T10:52:28;6.00;99.90
48686;DHT22;34485;51.536;3.816;2022-11-20T11:00:44;6.30;99.90
48686;DHT22;34485;51.536;3.816;2022-11-20T11:03:27;6.30;99.90
48686;DHT22;34485;51.536;3.816;2022-11-20T11:06:07;6.40;99.90
48686;DHT22;34485;51.536;3.816;2022-11-20T11:08:38;6.40;99.90
48686;DHT22;34485;51.536;3.816;2022-11-20T11:13:46;6.50;99.90
48686;DHT22;34485;51.536;3.816;2022-11-20T11:16:26;6.50;99.90
48686;DHT22;34485;51.536;3.816;2022-11-20T11:19:21;6.50;99.90
48686;DHT22;34485;51.536;3.816;2022-11-20T11:21:48;6.60;99.90
48686;DHT22;34485;51.536;3.816;2022-11-20T11:24:34;6.80;99.90
48686;DHT22;34485;51.536;3.816;2022-11-20T11:27:02;6.90;99.90
48686;DHT22;34485;51.536;3.816;2022-11-20T11:29:30;6.80;99.90
48686;DHT22;34485;51.536;3.816;2022-11-20T11:32:34;6.90;99.90
48686;DHT22;34485;51.536;3.816;2022-11-20T11:35:21;7.00;99.90
48686;DHT22;34485;51.536;3.816;2022-11-20T11:37:47;7.00;99.90
48686;DHT22;34485;51.536;3.816;2022-11-20T11:40:15;7.10;99.90
48686;DHT22;34485;51.536;3.816;2022-11-20T11:42:45;7.20;99.90
48686;DHT22;34485;51.536;3.816;2022-11-20T11:45:14;7.00;99.90
48686;DHT22;34485;51.536;3.816;2022-11-20T11:50:22;7.10;99.90
48686;DHT22;34485;51.536;3.816;2022-11-20T11:55:38;7.20;99.90
48686;DHT22;34485;51.536;3.816;2022-11-20T12:00:39;7.20;99.90
48686;DHT22;34485;51.536;3.816;2022-11-20T12:03:16;7.20;99.90
48686;DHT22;34485;51.536;3.816;2022-11-20T12:05:46;7.30;99.90
48686;DHT22;34485;51.536;3.816;2022-11-20T12:11:16;7.30;99.90
48686;DHT22;34485;51.536;3.816;2022-11-20T12:16:24;7.30;99.90
48686;DHT22;34485;51.536;3.816;2022-11-20T12:18:51;7.30;99.90
48686;DHT22;34485;51.536;3.816;2022-11-20T12:26:34;7.30;99.90
48686;DHT22;34485;51.536;3.816;2022-11-20T12:38:31;7.40;99.90
48686;DHT22;34485;51.536;3.816;2022-11-20T12:44:38;7.50;99.90
48686;DHT22;34485;51.536;3.816;2022-11-20T12:50:37;7.50;99.90
48686;DHT22;34485;51.536;3.816;2022-11-20T13:01:24;7.60;99.90
48686;DHT22;34485;51.536;3.816;2022-11-20T13:06:40;7.60;99.90
48686;DHT22;34485;51.536;3.816;2022-11-20T13:09:12;7.60;99.90
48686;DHT22;34485;51.536;3.816;2022-11-20T13:12:03;7.70;99.90
48686;DHT22;34485;51.536;3.816;2022-11-20T13:14:53;7.70;99.90
48686;DHT22;34485;51.536;3.816;2022-11-20T13:17:24;7.70;99.90
48686;DHT22;34485;51.536;3.816;2022-11-20T13:19:57;7.70;99.90
48686;DHT22;34485;51.536;3.816;2022-11-20T13:25:34;7.70;99.90
48686;DHT22;34485;51.536;3.816;2022-11-20T13:28:43;7.70;99.90
48686;DHT22;34485;51.536;3.816;2022-11-20T13:30:52;7.70;99.90
48686;DHT22;34485;51.536;3.816;2022-11-20T13:33:30;7.70;99.90
48686;DHT22;34485;51.536;3.816;2022-11-20T13:35:59;7.70;99.90
48686;DHT22;34485;51.536;3.816;2022-11-20T13:38:25;7.70;99.90
48686;DHT22;34485;51.536;3.816;2022-11-20T13:40:59;7.70;99.90
48686;DHT22;34485;51.536;3.816;2022-11-20T13:43:47;7.70;99.90
48686;DHT22;34485;51.536;3.816;2022-11-20T13:46:13;7.70;99.90
48686;DHT22;34485;51.536;3.816;2022-11-20T13:48:45;7.70;99.90
48686;DHT22;34485;51.536;3.816;2022-11-20T13:51:28;7.70;99.90
48686;DHT22;34485;51.536;3.816;2022-11-20T13:57:18;7.70;99.90
48686;DHT22;34485;51.536;3.816;2022-11-20T14:02:29;7.80;99.90
48686;DHT22;34485;51.536;3.816;2022-11-20T14:04:57;7.80;99.90
48686;DHT22;34485;51.536;3.816;2022-11-20T14:07:27;7.80;99.90
48686;DHT22;34485;51.536;3.816;2022-11-20T14:09:57;7.80;99.90
48686;DHT22;34485;51.536;3.816;2022-11-20T14:12:28;7.80;99.90
48686;DHT22;34485;51.536;3.816;2022-11-20T14:14:55;7.80;99.90
48686;DHT22;34485;51.536;3.816;2022-11-20T14:17:24;7.80;99.90
48686;DHT22;34485;51.536;3.816;2022-11-20T14:19:57;7.90;99.90
48686;DHT22;34485;51.536;3.816;2022-11-20T14:22:25;7.90;99.90
48686;DHT22;34485;51.536;3.816;2022-11-20T14:27:38;7.90;99.90
48686;DHT22;34485;51.536;3.816;2022-11-20T14:30:06;7.90;99.90
48686;DHT22;34485;51.536;3.816;2022-11-20T14:32:37;7.90;99.90
48686;DHT22;34485;51.536;3.816;2022-11-20T14:35:09;8.00;99.90
48686;DHT22;34485;51.536;3.816;2022-11-20T14:37:37;8.00;99.90
48686;DHT22;34485;51.536;3.816;2022-11-20T14:40:21;8.00;99.90
48686;DHT22;34485;51.536;3.816;2022-11-20T14:42:47;8.00;99.90
48686;DHT22;34485;51.536;3.816;2022-11-20T14:45:13;8.00;99.90
48686;DHT22;34485;51.536;3.816;2022-11-20T14:47:39;8.10;99.90
48686;DHT22;34485;51.536;3.816;2022-11-20T14:50:14;8.10;99.90
48686;DHT22;34485;51.536;3.816;2022-11-20T14:52:56;8.10;99.90
48686;DHT22;34485;51.536;3.816;2022-11-20T14:58:03;8.20;99.90
48686;DHT22;34485;51.536;3.816;2022-11-20T15:00:31;8.20;99.90
48686;DHT22;34485;51.536;3.816;2022-11-20T15:02:57;8.20;99.90
48686;DHT22;34485;51.536;3.816;2022-11-20T15:05:45;8.30;99.90
48686;DHT22;34485;51.536;3.816;2022-11-20T15:08:16;8.30;99.90
48686;DHT22;34485;51.536;3.816;2022-11-20T15:10:49;8.30;99.90
48686;DHT22;34485;51.536;3.816;2022-11-20T15:13:27;8.40;99.90
48686;DHT22;34485;51.536;3.816;2022-11-20T15:15:56;8.40;99.90
48686;DHT22;34485;51.536;3.816;2022-11-20T15:18:26;8.50;99.90
48686;DHT22;34485;51.536;3.816;2022-11-20T15:20:55;8.60;99.90
48686;DHT22;34485;51.536;3.816;2022-11-20T15:23:21;8.70;99.90
48686;DHT22;34485;51.536;3.816;2022-11-20T15:25:47;8.70;99.90
48686;DHT22;34485;51.536;3.816;2022-11-20T15:30:48;8.80;99.90
48686;DHT22;34485;51.536;3.816;2022-11-20T15:33:16;8.80;99.90
48686;DHT22;34485;51.536;3.816;2022-11-20T15:35:42;8.80;99.90
48686;DHT22;34485;51.536;3.816;2022-11-20T15:38:08;8.90;99.90
48686;DHT22;34485;51.536;3.816;2022-11-20T15:40:33;8.90;99.90
48686;DHT22;34485;51.536;3.816;2022-11-20T15:42:59;8.90;99.90
48686;DHT22;34485;51.536;3.816;2022-11-20T15:45:43;8.90;99.90
48686;DHT22;34485;51.536;3.816;2022-11-20T15:48:19;8.90;99.90
48686;DHT22;34485;51.536;3.816;2022-11-20T15:53:29;8.80;99.90
48686;DHT22;34485;51.536;3.816;2022-11-20T15:55:55;8.90;99.90
48686;DHT22;34485;51.536;3.816;2022-11-20T15:58:20;9.00;99.90
48686;DHT22;34485;51.536;3.816;2022-11-20T16:00:48;9.00;99.90
48686;DHT22;34485;51.536;3.816;2022-11-20T16:03:15;9.10;99.90
48686;DHT22;34485;51.536;3.816;2022-11-20T16:05:40;9.10;99.90
48686;DHT22;34485;51.536;3.816;2022-11-20T16:08:06;9.10;99.90
48686;DHT22;34485;51.536;3.816;2022-11-20T16:10:32;9.10;99.90
48686;DHT22;34485;51.536;3.816;2022-11-20T16:12:57;9.10;99.90
48686;DHT22;34485;51.536;3.816;2022-11-20T16:15:44;9.10;99.90
48686;DHT22;34485;51.536;3.816;2022-11-20T16:20:39;9.10;99.90
48686;DHT22;34485;51.536;3.816;2022-11-20T17:02:03;9.00;99.90
48686;DHT22;34485;51.536;3.816;2022-11-20T17:04:28;8.90;99.90
48686;DHT22;34485;51.536;3.816;2022-11-20T17:16:40;8.90;99.90
48686;DHT22;34485;51.536;3.816;2022-11-20T17:19:05;8.80;99.90
48686;DHT22;34485;51.536;3.816;2022-11-20T17:21:32;8.80;99.90
48686;DHT22;34485;51.536;3.816;2022-11-20T17:24:02;8.80;99.90
48686;DHT22;34485;51.536;3.816;2022-11-20T17:26:28;8.70;99.90
48686;DHT22;34485;51.536;3.816;2022-11-20T17:28:56;8.70;99.90
48686;DHT22;34485;51.536;3.816;2022-11-20T17:33:49;8.70;99.90
48686;DHT22;34485;51.536;3.816;2022-11-20T17:36:16;8.70;99.90
48686;DHT22;34485;51.536;3.816;2022-11-20T17:38:42;8.70;99.90
48686;DHT22;34485;51.536;3.816;2022-11-20T17:41:11;8.70;99.90
48686;DHT22;34485;51.536;3.816;2022-11-20T17:43:37;8.70;99.90
48686;DHT22;34485;51.536;3.816;2022-11-20T17:46:06;8.70;99.90
48686;DHT22;34485;51.536;3.816;2022-11-20T17:48:32;8.80;99.90
48686;DHT22;34485;51.536;3.816;2022-11-20T17:51:00;8.80;99.90
48686;DHT22;34485;51.536;3.816;2022-11-20T17:53:26;8.80;99.90
48686;DHT22;34485;51.536;3.816;2022-11-20T17:55:56;8.90;99.90
48686;DHT22;34485;51.536;3.816;2022-11-20T17:58:40;8.80;99.90
48686;DHT22;34485;51.536;3.816;2022-11-20T18:01:07;8.80;99.90
48686;DHT22;34485;51.536;3.816;2022-11-20T18:03:32;8.90;99.90
48686;DHT22;34485;51.536;3.816;2022-11-20T18:05:58;8.90;99.90
48686;DHT22;34485;51.536;3.816;2022-11-20T18:08:26;8.80;99.90
48686;DHT22;34485;51.536;3.816;2022-11-20T18:10:51;8.80;99.90
48686;DHT22;34485;51.536;3.816;2022-11-20T18:13:17;8.80;99.90
48686;DHT22;34485;51.536;3.816;2022-11-20T18:15:42;8.80;99.90
48686;DHT22;34485;51.536;3.816;2022-11-20T18:18:08;8.80;99.90
48686;DHT22;34485;51.536;3.816;2022-11-20T18:20:34;8.70;99.90
48686;DHT22;34485;51.536;3.816;2022-11-20T18:22:59;8.70;99.90
48686;DHT22;34485;51.536;3.816;2022-11-20T18:25:26;8.80;99.90
48686;DHT22;34485;51.536;3.816;2022-11-20T18:27:51;8.80;99.90
48686;DHT22;34485;51.536;3.816;2022-11-20T18:30:17;8.80;99.90
48686;DHT22;34485;51.536;3.816;2022-11-20T18:32:43;8.80;99.90
48686;DHT22;34485;51.536;3.816;2022-11-20T18:35:08;8.80;99.90
48686;DHT22;34485;51.536;3.816;2022-11-20T18:37:34;8.80;99.90
48686;DHT22;34485;51.536;3.816;2022-11-20T18:39:59;8.80;99.90
48686;DHT22;34485;51.536;3.816;2022-11-20T18:42:25;8.80;99.90